Terminal Aerodrome Forecast
Issued by NWS Charleston, WV

Home | Current Version | Previous Version | Text Only | Print | Product List | Glossary On
Versions: 1 2 3 4 5 6 7 8 9 10 11 12 13 14 15 16 17 18 19 20 21 22 23 24 25 26
000
FTUS41 KRLX 301139
TAFCRW
TAF
KCRW 301139Z 3012/3112 19004KT P6SM BKN050
     FM301500 21008KT P6SM BKN035
     FM301700 20008KT P6SM VCTS BKN040CB
     FM302100 21006KT P6SM BKN045
     FM310100 18004KT P6SM SCT050
     FM310900 18005KT P6SM VCTS BKN040CB=

USA.gov is the U.S. government's official web portal to all federal, state and local government web resources and services.